Terminal Aerodrome Forecast
Issued by NWS

Home | Current Version | Previous Version | Text Only | Print | Product List | Glossary On
Versions: 1 2 3 4 5 6 7 8 9 10 11 12 13 14 15 16 17
000
FTUS44 KSJT 230500
TAFSOA
TAF
KSOA 230520Z 2306/2406 16008KT P6SM FEW250
     FM231500 18011G17KT P6SM SCT250
     FM240100 17007KT P6SM SCT250=

USA.gov is the U.S. government's official web portal to all federal, state and local government web resources and services.